createdAt,value
2023-04-10T00:01:59.688Z,15.33
2023-04-10T00:04:28.576Z,14.44
2023-04-10T00:06:56.602Z,13.45
2023-04-10T00:09:24.531Z,13.25
2023-04-10T00:11:52.590Z,14.45
2023-04-10T00:14:23.274Z,15.50
2023-04-10T00:16:51.327Z,15.58
2023-04-10T00:19:19.142Z,14.42
2023-04-10T00:21:47.092Z,13.45
2023-04-10T00:24:15.668Z,13.25
2023-04-10T00:26:43.573Z,14.41
2023-04-10T00:29:11.822Z,15.46
2023-04-10T00:31:39.741Z,15.23
2023-04-10T00:34:09.011Z,14.10
2023-04-10T00:36:36.873Z,13.24
2023-04-10T00:39:04.887Z,13.60
2023-04-10T00:41:32.824Z,14.85
2023-04-10T00:44:00.812Z,15.40
2023-04-10T00:46:29.430Z,14.43
2023-04-10T00:48:57.618Z,13.44
2023-04-10T00:51:26.581Z,13.28
2023-04-10T00:53:57.444Z,14.49
2023-04-10T00:56:25.603Z,15.53
2023-04-10T00:58:53.553Z,15.24
2023-04-10T01:01:21.454Z,14.11
2023-04-10T01:03:49.652Z,13.26
2023-04-10T01:06:38.639Z,13.31
2023-04-10T01:09:24.665Z,14.74
2023-04-10T01:11:58.652Z,15.20
2023-04-10T01:14:43.696Z,14.11
2023-04-10T01:17:19.357Z,13.13
2023-04-10T01:20:07.833Z,13.48
2023-04-10T01:22:41.556Z,14.85
2023-04-10T01:25:47.428Z,15.22
2023-04-10T01:28:42.675Z,13.90
2023-04-10T01:31:19.031Z,12.87
2023-04-10T01:33:51.556Z,12.95
2023-04-10T01:36:26.458Z,14.24
2023-04-10T01:38:56.765Z,15.20
2023-04-10T01:41:26.331Z,14.63
2023-04-10T01:43:55.473Z,13.51
2023-04-10T01:46:24.131Z,12.71
2023-04-10T01:48:52.363Z,13.15
2023-04-10T01:51:20.822Z,14.41
2023-04-10T01:53:48.973Z,14.94
2023-04-10T01:56:17.147Z,13.95
2023-04-10T01:58:45.086Z,12.99
2023-04-10T02:01:29.162Z,12.82
2023-04-10T02:03:59.218Z,14.12
2023-04-10T02:06:52.189Z,14.67
2023-04-10T02:09:34.125Z,13.52
2023-04-10T02:12:09.809Z,12.54
2023-04-10T02:14:41.921Z,12.47
2023-04-10T02:17:11.462Z,13.72
2023-04-10T02:19:40.437Z,14.27
2023-04-10T02:22:08.775Z,13.31
2023-04-10T02:24:36.630Z,12.36
2023-04-10T02:27:04.706Z,12.08
2023-04-10T02:29:32.590Z,13.21
2023-04-10T02:32:01.456Z,13.87
2023-04-10T02:34:29.479Z,12.98
2023-04-10T02:36:57.247Z,12.04
2023-04-10T02:39:25.234Z,11.80
2023-04-10T02:41:53.166Z,12.95
2023-04-10T02:44:21.555Z,13.56
2023-04-10T02:46:49.561Z,12.62
2023-04-10T02:49:17.417Z,11.67
2023-04-10T02:51:45.504Z,11.46
2023-04-10T02:54:13.373Z,12.64
2023-04-10T02:56:41.308Z,13.54
2023-04-10T02:59:09.238Z,12.87
2023-04-10T03:01:39.476Z,11.81
2023-04-10T03:04:08.142Z,11.08
2023-04-10T03:06:36.379Z,11.71
2023-04-10T03:09:04.448Z,12.94
2023-04-10T03:11:32.403Z,12.99
2023-04-10T03:14:00.474Z,11.90
2023-04-10T03:16:28.334Z,11.03
2023-04-10T03:18:56.976Z,10.85
2023-04-10T03:21:24.893Z,12.02
2023-04-10T03:23:52.957Z,12.83
2023-04-10T03:26:21.267Z,12.03
2023-04-10T03:28:49.078Z,11.07
2023-04-10T03:31:17.014Z,10.46
2023-04-10T03:33:45.007Z,11.25
2023-04-10T03:36:12.938Z,12.47
2023-04-10T03:38:41.267Z,12.65
2023-04-10T03:41:09.089Z,11.59
2023-04-10T03:43:36.964Z,10.67
2023-04-10T03:46:05.042Z,10.50
2023-04-10T03:48:33.517Z,11.68
2023-04-10T03:51:02.425Z,12.51
2023-04-10T03:53:30.463Z,11.77
2023-04-10T03:55:58.576Z,10.77
2023-04-10T03:58:26.495Z,10.37
2023-04-10T04:00:54.463Z,11.41
2023-04-10T04:03:22.531Z,12.49
2023-04-10T04:05:51.019Z,12.28
2023-04-10T04:08:18.880Z,11.19
2023-04-10T04:10:46.862Z,10.39
2023-04-10T04:13:14.776Z,10.99
2023-04-10T04:15:43.110Z,12.19
2023-04-10T04:18:11.097Z,12.59
2023-04-10T04:20:39.025Z,11.55
2023-04-10T04:23:06.955Z,10.60
2023-04-10T04:25:34.755Z,10.83
2023-04-10T04:28:02.546Z,12.04
2023-04-10T04:30:30.477Z,12.55
2023-04-10T04:32:58.367Z,11.61
2023-04-10T04:35:26.314Z,10.62
2023-04-10T04:37:54.226Z,10.53
2023-04-10T04:40:22.059Z,11.76
2023-04-10T04:42:49.859Z,12.78
2023-04-10T04:45:17.806Z,12.46
2023-04-10T04:47:45.713Z,11.32
2023-04-10T04:50:13.728Z,10.61
2023-04-10T04:52:41.667Z,11.47
2023-04-10T04:55:10.246Z,12.65
2023-04-10T04:57:38.057Z,12.93
2023-04-10T05:00:07.150Z,11.83
2023-04-10T05:02:35.249Z,10.86
2023-04-10T05:05:03.299Z,10.89
2023-04-10T05:07:33.143Z,12.16
2023-04-10T05:10:01.501Z,12.79
2023-04-10T05:12:29.364Z,11.87
2023-04-10T05:14:57.282Z,10.92
2023-04-10T05:17:25.742Z,11.02
2023-04-10T05:19:53.587Z,12.28
2023-04-10T05:22:21.625Z,13.02
2023-04-10T05:24:49.686Z,12.17
2023-04-10T05:27:18.425Z,11.17
2023-04-10T05:29:46.827Z,11.40
2023-04-10T05:32:15.102Z,12.62
2023-04-10T05:34:42.957Z,13.21
2023-04-10T05:37:13.143Z,12.27
2023-04-10T05:39:41.367Z,11.32
2023-04-10T05:42:09.609Z,11.52
2023-04-10T05:44:37.771Z,12.83
2023-04-10T05:47:06.022Z,13.55
2023-04-10T05:49:34.078Z,12.70
2023-04-10T05:52:02.221Z,11.72
2023-04-10T05:54:30.154Z,11.88
2023-04-10T05:56:58.273Z,13.14
2023-04-10T05:59:26.534Z,13.79
2023-04-10T06:01:54.728Z,12.89
2023-04-10T06:04:23.588Z,11.96
2023-04-10T06:06:52.328Z,12.38
2023-04-10T06:09:20.544Z,13.65
2023-04-10T06:11:48.447Z,14.16
2023-04-10T06:14:18.082Z,13.18
2023-04-10T06:16:46.086Z,12.25
2023-04-10T06:19:14.085Z,12.57
2023-04-10T06:21:41.917Z,13.83
2023-04-10T06:24:11.673Z,14.42
2023-04-10T06:26:40.760Z,13.44
2023-04-10T06:29:08.730Z,12.49
2023-04-10T06:31:36.700Z,12.65
2023-04-10T06:34:04.628Z,13.93
2023-04-10T06:36:33.104Z,14.85
2023-04-10T06:39:02.998Z,14.26
2023-04-10T06:41:31.221Z,13.24
2023-04-10T06:46:28.139Z,13.99
2023-04-10T06:48:56.325Z,14.95
2023-04-10T06:51:24.400Z,14.20
2023-04-10T06:53:52.188Z,13.24
2023-04-10T06:56:20.023Z,13.28
2023-04-10T06:58:47.937Z,14.50
2023-04-10T07:01:17.787Z,14.97
2023-04-10T07:03:45.909Z,13.96
2023-04-10T07:06:13.782Z,13.07
2023-04-10T07:08:41.768Z,13.05
2023-04-10T07:11:09.615Z,14.30
2023-04-10T07:13:38.982Z,15.44
2023-04-10T07:16:11.140Z,15.43
2023-04-10T07:18:41.164Z,14.32
2023-04-10T07:21:14.418Z,13.55
2023-04-10T07:23:42.348Z,14.24
2023-04-10T07:26:10.189Z,15.45
2023-04-10T07:28:38.324Z,15.45
2023-04-10T07:31:07.945Z,14.40
2023-04-10T07:33:36.561Z,13.57
2023-04-10T07:36:06.161Z,13.58
2023-04-10T07:38:34.105Z,14.93
2023-04-10T07:41:01.966Z,15.47
2023-04-10T07:43:29.870Z,14.55
2023-04-10T07:45:58.075Z,13.70
2023-04-10T07:48:26.261Z,13.66
2023-04-10T07:50:54.206Z,14.95
2023-04-10T07:53:22.105Z,15.65
2023-04-10T07:55:50.260Z,14.83
2023-04-10T07:58:18.094Z,13.97
2023-04-10T08:00:45.969Z,13.84
2023-04-10T08:03:15.934Z,15.10
2023-04-10T08:05:43.939Z,15.87
2023-04-10T08:08:12.050Z,15.08
2023-04-10T08:10:39.874Z,14.21
2023-04-10T08:13:07.838Z,13.99
2023-04-10T08:15:36.492Z,15.22
2023-04-10T08:18:04.362Z,16.00
2023-04-10T08:20:36.960Z,15.22
2023-04-10T08:23:19.288Z,14.38
2023-04-10T08:25:48.514Z,14.26
2023-04-10T08:28:16.533Z,15.53
2023-04-10T08:30:44.487Z,16.17
2023-04-10T08:33:13.336Z,15.32
2023-04-10T08:35:41.288Z,14.52
2023-04-10T08:38:14.213Z,14.36
2023-04-10T08:40:44.809Z,15.66
2023-04-10T08:43:13.850Z,16.36
2023-04-10T08:45:41.773Z,15.52
2023-04-10T08:48:10.743Z,14.68
2023-04-10T08:50:43.107Z,14.48
2023-04-10T08:53:15.914Z,15.70
2023-04-10T08:55:44.568Z,16.16
2023-04-10T08:58:13.858Z,15.29
2023-04-10T09:00:41.882Z,14.57
2023-04-10T09:03:15.016Z,14.49
2023-04-10T09:05:43.260Z,15.79
2023-04-10T09:08:12.289Z,16.43
2023-04-10T09:10:40.335Z,15.64
2023-04-10T09:13:08.176Z,14.90
2023-04-10T09:15:59.180Z,14.39
2023-04-10T09:18:43.456Z,14.64
2023-04-10T09:21:14.126Z,16.17
2023-04-10T09:23:44.632Z,16.28
2023-04-10T09:26:33.494Z,15.42
2023-04-10T09:29:05.757Z,14.69
2023-04-10T09:31:39.047Z,14.35
2023-04-10T09:34:07.690Z,15.34
2023-04-10T09:36:37.061Z,16.69
2023-04-10T09:39:05.975Z,16.74
2023-04-10T09:41:34.254Z,15.87
2023-04-10T09:44:11.442Z,15.19
2023-04-10T09:46:39.310Z,14.71
2023-04-10T09:49:07.770Z,14.82
2023-04-10T09:51:36.123Z,16.22
2023-04-10T09:54:04.281Z,16.93
2023-04-10T09:56:36.218Z,16.18
2023-04-10T09:59:04.846Z,15.43
2023-04-10T10:01:37.044Z,14.96
2023-04-10T10:04:05.378Z,14.72
2023-04-10T10:06:34.720Z,15.79
2023-04-10T10:09:04.806Z,16.98
2023-04-10T10:11:36.033Z,16.60
2023-04-10T10:14:19.019Z,15.83
2023-04-10T10:16:50.535Z,15.26
2023-04-10T10:19:31.745Z,15.07
2023-04-10T10:22:01.826Z,16.33
2023-04-10T10:24:31.798Z,17.28
2023-04-10T10:27:00.006Z,16.67
2023-04-10T10:29:32.393Z,15.97
2023-04-10T10:32:03.019Z,15.49
2023-04-10T10:34:31.972Z,15.17
2023-04-10T10:37:01.185Z,15.67
2023-04-10T10:39:48.964Z,17.13
2023-04-10T10:43:13.812Z,17.33
2023-04-10T10:46:13.594Z,16.37
2023-04-10T10:48:41.531Z,15.83
2023-04-10T10:51:09.382Z,15.55
2023-04-10T10:53:43.710Z,15.33
2023-04-10T10:56:23.316Z,15.88
2023-04-10T10:58:54.257Z,17.22
2023-04-10T11:01:22.495Z,16.94
2023-04-10T11:03:50.970Z,16.51
2023-04-10T11:06:21.082Z,16.32
2023-04-10T11:08:51.610Z,16.27
2023-04-10T11:11:24.396Z,16.31
2023-04-10T11:13:58.036Z,16.35
2023-04-10T11:16:35.904Z,16.43
2023-04-10T11:19:13.849Z,16.51
2023-04-10T11:22:02.409Z,16.58
2023-04-10T11:24:51.981Z,16.68
2023-04-10T11:27:46.917Z,16.85
2023-04-10T11:30:31.748Z,17.04
2023-04-10T11:33:01.325Z,17.20
2023-04-10T11:35:31.709Z,17.35
2023-04-10T11:38:15.788Z,17.48
2023-04-10T11:41:04.802Z,17.62
2023-04-10T11:43:33.878Z,17.78
2023-04-10T11:46:04.299Z,17.91
2023-04-10T11:48:32.506Z,18.03
2023-04-10T11:51:11.458Z,18.16
2023-04-10T11:53:41.124Z,18.27
2023-04-10T11:56:26.748Z,18.41
2023-04-10T11:58:55.294Z,18.57
2023-04-10T12:01:23.886Z,18.70
2023-04-10T12:03:52.118Z,18.82
2023-04-10T12:06:20.607Z,18.95
2023-04-10T12:08:51.080Z,19.05
2023-04-10T12:11:24.221Z,19.16
2023-04-10T12:13:53.877Z,19.26
2023-04-10T12:16:22.152Z,19.37
2023-04-10T12:18:50.588Z,19.46
2023-04-10T12:21:18.456Z,19.54
2023-04-10T12:23:46.233Z,19.62
2023-04-10T12:26:18.950Z,19.66
2023-04-10T12:28:53.554Z,19.69
2023-04-10T12:31:32.863Z,19.71
2023-04-10T12:34:02.558Z,19.73
2023-04-10T12:36:32.381Z,19.73
2023-04-10T12:39:04.733Z,19.74
2023-04-10T12:41:34.356Z,19.72
2023-04-10T12:44:13.510Z,19.70
2023-04-10T12:46:43.085Z,19.68
2023-04-10T12:49:16.159Z,19.67
2023-04-10T12:51:52.339Z,19.64
2023-04-10T12:54:33.317Z,19.62
2023-04-10T12:57:02.847Z,19.58
2023-04-10T12:59:31.474Z,19.56
2023-04-10T13:01:59.551Z,19.55
2023-04-10T13:04:29.849Z,19.56
2023-04-10T13:06:57.688Z,19.55
2023-04-10T13:09:25.531Z,19.55
2023-04-10T13:11:53.354Z,19.55
2023-04-10T13:14:21.104Z,19.52
2023-04-10T13:16:49.007Z,19.51
2023-04-10T13:19:16.861Z,19.52
2023-04-10T13:21:44.727Z,19.52
2023-04-10T13:24:14.730Z,19.51
2023-04-10T13:26:43.915Z,19.51
2023-04-10T13:29:12.128Z,19.50
2023-04-10T13:31:39.945Z,19.49
2023-04-10T13:34:07.801Z,19.48
2023-04-10T13:36:35.692Z,19.46
2023-04-10T13:39:03.752Z,19.43
2023-04-10T13:41:31.630Z,19.39
2023-04-10T13:43:59.443Z,19.34
2023-04-10T13:46:27.365Z,19.28
2023-04-10T13:48:55.659Z,19.18
2023-04-10T13:51:23.726Z,19.06
2023-04-10T13:53:51.553Z,18.93
2023-04-10T13:56:19.398Z,18.77
2023-04-10T13:58:47.222Z,18.58
2023-04-10T14:01:15.185Z,18.39
2023-04-10T14:03:43.075Z,18.23
2023-04-10T14:06:11.055Z,18.11
2023-04-10T14:08:38.885Z,17.98
2023-04-10T14:11:07.127Z,17.86
2023-04-10T14:13:35.089Z,17.75
2023-04-10T14:16:04.248Z,17.63
2023-04-10T14:18:32.151Z,17.54
2023-04-10T14:21:00.019Z,17.45
2023-04-10T14:23:27.959Z,17.36
2023-04-10T14:25:55.872Z,17.28
2023-04-10T14:28:23.638Z,17.21
2023-04-10T14:30:51.990Z,17.15
2023-04-10T14:33:20.292Z,17.10
2023-04-10T14:35:48.535Z,17.03
2023-04-10T14:38:16.515Z,16.97
2023-04-10T14:40:48.557Z,16.91
2023-04-10T14:43:16.913Z,16.85
2023-04-10T14:45:44.779Z,16.80
2023-04-10T14:48:13.137Z,16.73
2023-04-10T14:50:41.378Z,16.67
2023-04-10T14:53:10.028Z,16.62
2023-04-10T14:55:38.005Z,16.56
2023-04-10T14:58:07.104Z,16.52
2023-04-10T15:00:35.550Z,16.48
2023-04-10T15:03:05.473Z,16.45
2023-04-10T15:05:33.431Z,16.40
2023-04-10T15:08:01.297Z,16.36
2023-04-10T15:10:30.778Z,16.33
2023-04-10T15:12:58.644Z,16.29
2023-04-10T15:15:26.525Z,16.26
2023-04-10T15:17:54.430Z,16.23
2023-04-10T15:20:22.339Z,16.20
2023-04-10T15:22:50.140Z,16.18
2023-04-10T15:25:17.898Z,16.15
2023-04-10T15:27:45.723Z,16.12
2023-04-10T15:30:13.709Z,16.10
2023-04-10T15:32:41.490Z,16.07
2023-04-10T15:35:09.553Z,16.05
2023-04-10T15:37:37.479Z,16.03
2023-04-10T15:40:06.489Z,16.01
2023-04-10T15:42:34.853Z,16.00
2023-04-10T15:45:03.984Z,15.98
2023-04-10T15:47:31.945Z,15.97
2023-04-10T15:49:59.766Z,15.96
2023-04-10T15:52:29.432Z,15.95
2023-04-10T15:54:57.264Z,15.93
2023-04-10T15:57:25.194Z,15.92
2023-04-10T15:59:53.895Z,15.91
2023-04-10T16:02:21.820Z,15.89
2023-04-10T16:04:49.948Z,15.87
2023-04-10T16:07:17.923Z,15.85
2023-04-10T16:09:46.198Z,15.82
2023-04-10T16:12:14.134Z,15.81
2023-04-10T16:14:42.005Z,15.78
2023-04-10T16:17:09.769Z,15.74
2023-04-10T16:19:37.732Z,15.71
2023-04-10T16:22:05.917Z,15.69
2023-04-10T16:24:33.729Z,15.67
2023-04-10T16:27:02.227Z,15.65
2023-04-10T16:29:30.190Z,15.61
2023-04-10T16:31:57.964Z,15.58
2023-04-10T16:34:25.819Z,15.55
2023-04-10T16:36:53.671Z,15.52
2023-04-10T16:39:22.055Z,15.49
2023-04-10T16:41:49.932Z,15.45
2023-04-10T16:44:17.799Z,15.41
2023-04-10T16:46:45.689Z,15.37
2023-04-10T16:49:13.544Z,15.32
2023-04-10T16:51:41.462Z,15.26
2023-04-10T16:54:09.311Z,15.21
2023-04-10T16:56:37.235Z,15.16
2023-04-10T16:59:05.003Z,15.11
2023-04-10T17:01:35.187Z,15.06
2023-04-10T17:04:03.194Z,15.01
2023-04-10T17:06:31.333Z,14.96
2023-04-10T17:08:59.103Z,15.25
2023-04-10T17:11:27.074Z,16.77
2023-04-10T17:13:54.862Z,17.74
2023-04-10T17:16:23.002Z,17.20
2023-04-10T17:18:52.139Z,16.60
2023-04-10T17:21:20.096Z,16.21
2023-04-10T17:23:48.869Z,15.93
2023-04-10T17:26:17.186Z,15.71
2023-04-10T17:28:46.706Z,15.53
2023-04-10T17:31:15.610Z,15.37
2023-04-10T17:33:44.198Z,15.21
2023-04-10T17:36:12.845Z,15.06
2023-04-10T17:38:42.359Z,14.92
2023-04-10T17:41:14.035Z,15.17
2023-04-10T17:43:42.010Z,16.52
2023-04-10T17:46:16.873Z,17.39
2023-04-10T17:48:45.181Z,16.81
2023-04-10T17:51:13.022Z,16.15
2023-04-10T17:53:41.168Z,15.69
2023-04-10T17:56:19.162Z,15.36
2023-04-10T17:58:47.237Z,15.08
2023-04-10T18:01:29.612Z,15.25
2023-04-10T18:03:57.845Z,16.75
2023-04-10T18:06:26.472Z,17.56
2023-04-10T18:08:57.151Z,16.86
2023-04-10T18:11:25.655Z,16.11
2023-04-10T18:13:53.599Z,15.58
2023-04-10T18:16:21.608Z,15.67
2023-04-10T18:18:49.699Z,16.98
2023-04-10T18:21:17.617Z,17.57
2023-04-10T18:23:45.730Z,16.75
2023-04-10T18:26:13.690Z,15.97
2023-04-10T18:28:43.188Z,15.41
2023-04-10T18:31:14.853Z,15.49
2023-04-10T18:33:43.424Z,16.78
2023-04-10T18:36:14.094Z,17.19
2023-04-10T18:38:43.886Z,16.32
2023-04-10T18:41:11.934Z,15.57
2023-04-10T18:43:39.936Z,15.00
2023-04-10T18:46:08.675Z,15.13
2023-04-10T18:48:42.852Z,16.46
2023-04-10T18:51:13.777Z,16.89
2023-04-10T18:53:42.026Z,16.00
2023-04-10T18:56:09.854Z,15.24
2023-04-10T18:58:37.756Z,14.70
2023-04-10T19:01:06.290Z,14.80
2023-04-10T19:03:34.439Z,16.09
2023-04-10T19:06:04.922Z,16.84
2023-04-10T19:08:35.908Z,16.03
2023-04-10T19:11:07.821Z,15.21
2023-04-10T19:13:35.921Z,14.60
2023-04-10T19:16:04.892Z,14.67
2023-04-10T19:18:33.122Z,15.97
2023-04-10T19:21:01.128Z,16.70
2023-04-10T19:23:28.961Z,15.88
2023-04-10T19:25:58.733Z,15.04
2023-04-10T19:28:29.473Z,14.50
2023-04-10T19:30:57.689Z,15.25
2023-04-10T19:33:25.769Z,16.55
2023-04-10T19:35:54.042Z,16.78
2023-04-10T19:38:25.127Z,15.81
2023-04-10T19:40:53.712Z,14.97
2023-04-10T19:43:21.885Z,14.38
2023-04-10T19:45:50.351Z,14.44
2023-04-10T19:48:18.540Z,15.75
2023-04-10T19:50:46.686Z,16.46
2023-04-10T19:53:15.703Z,15.64
2023-04-10T19:55:45.752Z,14.77
2023-04-10T19:58:25.271Z,14.15
2023-04-10T20:01:05.124Z,14.62
2023-04-10T20:03:33.492Z,15.96
2023-04-10T20:06:03.296Z,16.44
2023-04-10T20:08:31.370Z,15.51
2023-04-10T20:10:59.813Z,14.65
2023-04-10T20:13:27.918Z,14.12
2023-04-10T20:15:55.932Z,14.93
2023-04-10T20:18:23.849Z,16.17
2023-04-10T20:20:51.823Z,16.14
2023-04-10T20:23:19.721Z,15.12
2023-04-10T20:25:47.612Z,14.32
2023-04-10T20:28:17.018Z,14.13
2023-04-10T20:30:44.973Z,15.31
2023-04-10T20:33:12.833Z,16.01
2023-04-10T20:35:40.954Z,15.21
2023-04-10T20:38:08.977Z,14.33
2023-04-10T20:40:37.090Z,13.77
2023-04-10T20:43:11.033Z,14.37
2023-04-10T20:45:40.167Z,15.53
2023-04-10T20:48:09.164Z,15.91
2023-04-10T20:50:39.969Z,15.00
2023-04-10T20:53:08.028Z,14.13
2023-04-10T20:55:39.708Z,13.86
2023-04-10T20:58:07.726Z,14.91
2023-04-10T21:00:35.748Z,15.87
2023-04-10T21:03:03.819Z,15.70
2023-04-10T21:05:31.846Z,14.69
2023-04-10T21:07:59.730Z,13.90
2023-04-10T21:10:28.953Z,13.69
2023-04-10T21:12:57.063Z,14.76
2023-04-10T21:15:24.957Z,15.73
2023-04-10T21:17:53.057Z,15.39
2023-04-10T21:20:20.865Z,14.38
2023-04-10T21:22:48.710Z,13.62
2023-04-10T21:25:16.773Z,13.53
2023-04-10T21:27:44.555Z,14.66
2023-04-10T21:30:12.738Z,15.59
2023-04-10T21:32:40.723Z,15.24
2023-04-10T21:35:09.078Z,14.25
2023-04-10T21:37:37.098Z,13.47
2023-04-10T21:40:09.371Z,13.29
2023-04-10T21:42:38.329Z,14.43
2023-04-10T21:45:07.246Z,15.41
2023-04-10T21:47:35.035Z,15.03
2023-04-10T21:50:02.786Z,14.02
2023-04-10T21:52:30.713Z,13.26
2023-04-10T21:54:58.830Z,13.17
2023-04-10T21:57:27.004Z,14.39
2023-04-10T21:59:54.936Z,15.42
2023-04-10T22:02:22.941Z,15.22
2023-04-10T22:04:54.687Z,14.17
2023-04-10T22:07:23.032Z,13.36
2023-04-10T22:09:51.092Z,13.25
2023-04-10T22:12:18.999Z,14.41
2023-04-10T22:14:49.256Z,15.40
2023-04-10T22:17:17.223Z,15.20
2023-04-10T22:19:45.085Z,14.17
2023-04-10T22:22:12.996Z,13.44
2023-04-10T22:24:41.007Z,14.05
2023-04-10T22:27:09.001Z,15.20
2023-04-10T22:29:37.120Z,15.58
2023-04-10T22:32:05.508Z,14.63
2023-04-10T22:34:33.380Z,13.74
2023-04-10T22:37:01.235Z,13.46
2023-04-10T22:39:29.014Z,14.54
2023-04-10T22:41:56.883Z,15.55
2023-04-10T22:44:25.042Z,15.30
2023-04-10T22:46:53.291Z,14.28
2023-04-10T22:49:21.192Z,13.50
2023-04-10T22:51:51.510Z,13.42
2023-04-10T22:54:19.326Z,14.58
2023-04-10T22:56:48.911Z,15.54
2023-04-10T22:59:21.313Z,15.28
2023-04-10T23:01:49.323Z,14.24
2023-04-10T23:04:17.274Z,13.47
2023-04-10T23:06:45.313Z,13.23
2023-04-10T23:09:13.254Z,14.23
2023-04-10T23:11:41.166Z,14.85
2023-04-10T23:14:09.059Z,14.10
2023-04-10T23:16:37.031Z,13.27
2023-04-10T23:19:05.224Z,12.72
2023-04-10T23:21:33.193Z,13.32
2023-04-10T23:24:01.107Z,14.41
2023-04-10T23:26:32.330Z,14.85
2023-04-10T23:29:01.215Z,13.98
2023-04-10T23:31:29.118Z,13.12
2023-04-10T23:33:57.033Z,12.83
2023-04-10T23:36:24.859Z,13.82
2023-04-10T23:38:53.526Z,14.84
2023-04-10T23:41:21.655Z,14.70
2023-04-10T23:43:49.566Z,13.70
2023-04-10T23:46:17.417Z,12.90
2023-04-10T23:48:45.327Z,12.64
2023-04-10T23:51:13.223Z,13.69
2023-04-10T23:53:41.044Z,14.61
2023-04-10T23:56:09.231Z,14.06
2023-04-10T23:58:36.953Z,13.10
